Thursday, April 26, 2018, 5:37 AM EDT
Back to Local

K1V4, St Johnsbury Fairbanks

Location: Saint Johnsbury, VT, United States Lat: 44.417
Local Time: 5:37 AM EDT ( 9:37 GMT) Lon: -72.017
Time Zone: US/Eastern Elev: 695 ft

Show me the last for .
Show Coded

Time T Td Feel RH Dir Speed Gust Alt SLP Vis Weather Sky Remarks
2018-04-26 04:54 49 49 - 100 - - - 29.57 29.57 0 None
2018-04-26 03:54 49 49 - 100 - - - 29.58 29.57 0 None
2018-04-26 02:54 50 49 - 96 - - - 29.59 29.59 0 None
2018-04-26 01:54 50 50 - 100 - - - 29.61 29.61 0 1-hr Precip Total: 0.04"
6-hr Precip Total (2am): 0.16"
6-hr Min Temp (2am): 50.0°F
6-hr Max Temp (2am): 53.1°F
2018-04-26 00:54 50 50 - 100 - - - 29.64 29.64 0 1-hr Precip Total: 0.06"
24-hr Min Temp (1am): 48.0°F
24-hr Max Temp (1am): 55.9°F
2018-04-25 23:54 50 50 - 100 - - - 29.66 29.66 0 1-hr Precip Total: 0.02"
2018-04-25 22:54 51 50 - 96 - - - 29.68 29.68 0 6-hr Precip Total (11pm): 0.04"
2018-04-25 21:54 52 50 - 92 - - - 29.71 29.71 0 1-hr Precip Total: 0.02"
2018-04-25 20:54 52 51 - 96 - - - 29.74 29.74 0 1-hr Precip Total: 0.02"
2018-04-25 19:54 53 52 - 96 - - - 29.75 29.75 0 6-hr Precip Total (8pm): 0.13"
6-hr Min Temp (8pm): 53.1°F
6-hr Max Temp (8pm): 55.0°F
2018-04-25 18:54 54 53 - 96 - - - 29.77 29.77 0 1-hr Precip Total: 0.03"
2018-04-25 17:54 55 54 - 96 - - - 29.80 29.79 0 1-hr Precip Total: 0.01"
2018-04-25 16:54 54 54 - 100 - - - 29.82 29.82 0 6-hr Precip Total (5pm): 0.09"
2018-04-25 15:54 54 53 - 96 - - - 29.85 29.85 0 1-hr Precip Total: 0.02"
2018-04-25 14:54 54 52 - 92 - - - 29.89 29.88 0 1-hr Precip Total: 0.07"
2018-04-25 13:54 54 51 - 89 - - - 29.93 29.92 0 1-hr Precip Total: 0.03"
6-hr Precip Total (2pm): 0.07"
6-hr Min Temp (2pm): 48.0°F
6-hr Max Temp (2pm): 55.0°F
2018-04-25 12:54 54 50 - 86 - - - 29.96 29.96 0 1-hr Precip Total: 0.01"
2018-04-25 11:54 53 49 - 85 - - - 30.00 30.00 0 1-hr Precip Total: 0.01"
2018-04-25 10:54 53 47 - 79 - - - 30.04 30.03 0 1-hr Precip Total: 0.01"
6-hr Precip Total (11am): 0.02"
2018-04-25 09:54 51 45 - 79 - - - 30.06 30.05 0 None
2018-04-25 08:54 49 46 - 89 - - - 30.08 30.08 0 1-hr Precip Total: 0.01"
2018-04-25 07:54 48 44 - 86 - - - 30.09 30.08 0 6-hr Min Temp (8am): 48.0°F
6-hr Max Temp (8am): 55.0°F
2018-04-25 06:54 51 40 - 65 - - - 30.09 30.08 0 None
2018-04-25 05:54 52 38 - 58 - - - 30.08 30.07 0 None

Support USWX by starting your Amazon purchase here.